sensor_id;sensor_type;location;lat;lon;timestamp;pressure;altitude;pressure_sealevel;temperature;humidity
9676;BME280;4876;42.656;23.292;2023-05-08T00:01:25;94534.19;;;13.67;74.46
9676;BME280;4876;42.656;23.292;2023-05-08T00:03:51;94529.56;;;13.64;74.47
9676;BME280;4876;42.656;23.292;2023-05-08T00:06:19;94532.53;;;13.62;74.61
9676;BME280;4876;42.656;23.292;2023-05-08T00:08:47;94530.84;;;13.58;74.86
9676;BME280;4876;42.656;23.292;2023-05-08T00:11:14;94528.53;;;13.56;74.83
9676;BME280;4876;42.656;23.292;2023-05-08T00:13:40;94537.84;;;13.54;74.77
9676;BME280;4876;42.656;23.292;2023-05-08T00:16:07;94532.38;;;13.59;74.70
9676;BME280;4876;42.656;23.292;2023-05-08T00:18:35;94539.53;;;13.58;74.31
9676;BME280;4876;42.656;23.292;2023-05-08T00:21:03;94537.47;;;13.64;74.08
9676;BME280;4876;42.656;23.292;2023-05-08T00:23:30;94542.56;;;13.69;74.03
9676;BME280;4876;42.656;23.292;2023-05-08T00:25:58;94541.66;;;13.65;74.38
9676;BME280;4876;42.656;23.292;2023-05-08T00:28:25;94542.56;;;13.69;73.74
9676;BME280;4876;42.656;23.292;2023-05-08T00:30:51;94542.75;;;13.64;73.87
9676;BME280;4876;42.656;23.292;2023-05-08T00:33:18;94548.13;;;13.55;74.25
9676;BME280;4876;42.656;23.292;2023-05-08T00:35:45;94544.91;;;13.50;74.27
9676;BME280;4876;42.656;23.292;2023-05-08T00:38:12;94533.94;;;13.39;74.72
9676;BME280;4876;42.656;23.292;2023-05-08T00:40:38;94538.44;;;13.38;75.05
9676;BME280;4876;42.656;23.292;2023-05-08T00:43:07;94543.53;;;13.43;74.86
9676;BME280;4876;42.656;23.292;2023-05-08T00:45:36;94543.28;;;13.36;75.26
9676;BME280;4876;42.656;23.292;2023-05-08T00:48:03;94523.75;;;13.29;75.04
9676;BME280;4876;42.656;23.292;2023-05-08T00:50:31;94538.72;;;13.45;74.80
9676;BME280;4876;42.656;23.292;2023-05-08T00:52:59;94544.38;;;13.35;75.18
9676;BME280;4876;42.656;23.292;2023-05-08T00:55:26;94542.13;;;13.25;76.06
9676;BME280;4876;42.656;23.292;2023-05-08T00:57:54;94545.03;;;13.32;75.87
9676;BME280;4876;42.656;23.292;2023-05-08T01:00:22;94552.16;;;13.32;75.83
9676;BME280;4876;42.656;23.292;2023-05-08T01:02:50;94551.59;;;13.26;75.88
9676;BME280;4876;42.656;23.292;2023-05-08T01:05:17;94550.53;;;13.18;76.46
9676;BME280;4876;42.656;23.292;2023-05-08T01:07:44;94557.97;;;13.16;76.25
9676;BME280;4876;42.656;23.292;2023-05-08T01:10:11;94556.13;;;13.17;76.34
9676;BME280;4876;42.656;23.292;2023-05-08T01:12:46;94551.91;;;13.16;76.13
9676;BME280;4876;42.656;23.292;2023-05-08T01:15:25;94546.53;;;13.12;76.30
9676;BME280;4876;42.656;23.292;2023-05-08T01:18:01;94562.97;;;13.09;76.79
9676;BME280;4876;42.656;23.292;2023-05-08T01:20:38;94559.13;;;13.07;76.37
9676;BME280;4876;42.656;23.292;2023-05-08T01:23:23;94558.63;;;13.13;76.45
9676;BME280;4876;42.656;23.292;2023-05-08T01:26:10;94553.84;;;13.07;76.52
9676;BME280;4876;42.656;23.292;2023-05-08T01:29:02;94559.13;;;13.07;76.72
9676;BME280;4876;42.656;23.292;2023-05-08T01:31:46;94550.03;;;12.96;76.64
9676;BME280;4876;42.656;23.292;2023-05-08T01:34:21;94547.59;;;12.82;77.56
9676;BME280;4876;42.656;23.292;2023-05-08T01:36:53;94545.16;;;12.77;77.77
9676;BME280;4876;42.656;23.292;2023-05-08T01:39:31;94544.59;;;12.62;78.28
9676;BME280;4876;42.656;23.292;2023-05-08T01:42:05;94544.59;;;12.62;78.78
9676;BME280;4876;42.656;23.292;2023-05-08T01:44:36;94536.53;;;12.59;78.80
9676;BME280;4876;42.656;23.292;2023-05-08T01:47:06;94547.91;;;12.51;79.83
9676;BME280;4876;42.656;23.292;2023-05-08T01:49:39;94530.16;;;12.60;78.93
9676;BME280;4876;42.656;23.292;2023-05-08T01:52:10;94537.44;;;12.63;78.64
9676;BME280;4876;42.656;23.292;2023-05-08T01:54:43;94528.78;;;12.54;79.07
9676;BME280;4876;42.656;23.292;2023-05-08T01:57:13;94543.22;;;12.48;79.48
9676;BME280;4876;42.656;23.292;2023-05-08T01:59:43;94534.06;;;12.54;78.92
9676;BME280;4876;42.656;23.292;2023-05-08T02:02:12;94541.34;;;12.57;78.87
9676;BME280;4876;42.656;23.292;2023-05-08T02:04:42;94536.53;;;12.59;78.40
9676;BME280;4876;42.656;23.292;2023-05-08T02:07:10;94535.44;;;12.60;78.32
9676;BME280;4876;42.656;23.292;2023-05-08T02:09:39;94534.81;;;12.63;78.13
9676;BME280;4876;42.656;23.292;2023-05-08T02:12:08;94541.28;;;12.74;77.69
9676;BME280;4876;42.656;23.292;2023-05-08T02:14:37;94545.91;;;12.77;77.52
9676;BME280;4876;42.656;23.292;2023-05-08T02:17:06;94541.63;;;12.64;78.21
9676;BME280;4876;42.656;23.292;2023-05-08T02:19:38;94539.34;;;12.54;78.86
9676;BME280;4876;42.656;23.292;2023-05-08T02:22:07;94543.16;;;12.65;78.05
9676;BME280;4876;42.656;23.292;2023-05-08T02:24:36;94539.94;;;12.59;77.88
9676;BME280;4876;42.656;23.292;2023-05-08T02:27:04;94537.78;;;12.53;78.36
9676;BME280;4876;42.656;23.292;2023-05-08T02:29:32;94534.13;;;12.36;78.74
9676;BME280;4876;42.656;23.292;2023-05-08T02:32:01;94550.13;;;12.31;79.31
9676;BME280;4876;42.656;23.292;2023-05-08T02:34:29;94534.03;;;12.24;79.80
9676;BME280;4876;42.656;23.292;2023-05-08T02:36:58;94517.59;;;12.10;79.79
9676;BME280;4876;42.656;23.292;2023-05-08T02:39:29;94539.91;;;12.21;80.66
9676;BME280;4876;42.656;23.292;2023-05-08T02:41:56;94542.06;;;12.28;80.35
9676;BME280;4876;42.656;23.292;2023-05-08T02:44:23;94544.84;;;12.31;80.02
9676;BME280;4876;42.656;23.292;2023-05-08T02:46:55;94523.47;;;12.24;79.91
9676;BME280;4876;42.656;23.292;2023-05-08T02:49:27;94545.25;;;12.42;79.42
9676;BME280;4876;42.656;23.292;2023-05-08T02:52:04;94545.25;;;12.42;79.07
9676;BME280;4876;42.656;23.292;2023-05-08T02:54:37;94543.13;;;12.35;79.40
9676;BME280;4876;42.656;23.292;2023-05-08T02:57:12;94538.66;;;12.27;78.96
9676;BME280;4876;42.656;23.292;2023-05-08T02:59:43;94553.84;;;12.30;78.81
9676;BME280;4876;42.656;23.292;2023-05-08T03:02:15;94554.63;;;12.22;79.58
9676;BME280;4876;42.656;23.292;2023-05-08T03:04:48;94545.06;;;12.18;79.66
9676;BME280;4876;42.656;23.292;2023-05-08T03:07:15;94555.56;;;12.26;79.40
9676;BME280;4876;42.656;23.292;2023-05-08T03:09:47;94546.88;;;12.26;79.47
9676;BME280;4876;42.656;23.292;2023-05-08T03:12:19;94553.38;;;12.28;79.36
9676;BME280;4876;42.656;23.292;2023-05-08T03:15:05;94557.28;;;12.31;78.93
9676;BME280;4876;42.656;23.292;2023-05-08T03:17:32;94548.28;;;12.23;78.62
9676;BME280;4876;42.656;23.292;2023-05-08T03:20:03;94554.91;;;12.38;78.19
9676;BME280;4876;42.656;23.292;2023-05-08T03:22:33;94557.69;;;12.42;77.88
9676;BME280;4876;42.656;23.292;2023-05-08T03:25:04;94559.94;;;12.69;76.88
9676;BME280;4876;42.656;23.292;2023-05-08T03:27:33;94553.09;;;12.98;76.10
9676;BME280;4876;42.656;23.292;2023-05-08T03:30:02;94560.88;;;13.32;74.52
9676;BME280;4876;42.656;23.292;2023-05-08T03:32:30;94561.50;;;13.71;72.67
9676;BME280;4876;42.656;23.292;2023-05-08T03:34:59;94572.19;;;13.95;71.44
9676;BME280;4876;42.656;23.292;2023-05-08T03:37:26;94565.00;;;14.17;70.17
9676;BME280;4876;42.656;23.292;2023-05-08T03:39:54;94568.66;;;14.70;68.73
9676;BME280;4876;42.656;23.292;2023-05-08T03:42:22;94559.38;;;15.49;66.68
9676;BME280;4876;42.656;23.292;2023-05-08T03:44:51;94570.09;;;15.93;64.80
9676;BME280;4876;42.656;23.292;2023-05-08T03:47:18;94557.69;;;16.25;64.13
9676;BME280;4876;42.656;23.292;2023-05-08T03:49:46;94571.81;;;16.89;60.83
9676;BME280;4876;42.656;23.292;2023-05-08T03:52:14;94582.28;;;16.82;60.72
9676;BME280;4876;42.656;23.292;2023-05-08T03:54:41;94572.59;;;16.30;62.61
9676;BME280;4876;42.656;23.292;2023-05-08T03:57:08;94576.16;;;17.13;60.03
9676;BME280;4876;42.656;23.292;2023-05-08T03:59:45;94579.16;;;17.62;57.53
9676;BME280;4876;42.656;23.292;2023-05-08T04:02:20;94575.72;;;16.63;61.98
9676;BME280;4876;42.656;23.292;2023-05-08T04:04:56;94552.75;;;15.43;64.86
9676;BME280;4876;42.656;23.292;2023-05-08T04:07:29;94545.47;;;15.93;63.46
9676;BME280;4876;42.656;23.292;2023-05-08T04:10:00;94581.19;;;15.58;66.18
9676;BME280;4876;42.656;23.292;2023-05-08T04:12:35;94584.47;;;15.92;64.47
9676;BME280;4876;42.656;23.292;2023-05-08T04:15:08;94580.19;;;16.15;62.96
9676;BME280;4876;42.656;23.292;2023-05-08T04:17:41;94587.63;;;16.54;61.77
9676;BME280;4876;42.656;23.292;2023-05-08T04:20:10;94585.03;;;16.57;61.28
9676;BME280;4876;42.656;23.292;2023-05-08T04:22:39;94592.66;;;16.43;61.17
9676;BME280;4876;42.656;23.292;2023-05-08T04:25:09;94585.69;;;16.23;62.05
9676;BME280;4876;42.656;23.292;2023-05-08T04:27:36;94597.03;;;15.95;62.51
9676;BME280;4876;42.656;23.292;2023-05-08T04:30:07;94594.25;;;15.64;62.47
9676;BME280;4876;42.656;23.292;2023-05-08T04:32:34;94598.47;;;15.40;62.88
9676;BME280;4876;42.656;23.292;2023-05-08T04:35:02;94551.91;;;14.90;63.92
9676;BME280;4876;42.656;23.292;2023-05-08T04:37:35;94603.78;;;15.03;64.35
9676;BME280;4876;42.656;23.292;2023-05-08T04:40:02;94589.88;;;15.06;64.56
9676;BME280;4876;42.656;23.292;2023-05-08T04:42:29;94584.25;;;15.08;64.60
9676;BME280;4876;42.656;23.292;2023-05-08T04:44:57;94584.56;;;14.94;65.75
9676;BME280;4876;42.656;23.292;2023-05-08T04:47:25;94583.44;;;14.71;66.53
9676;BME280;4876;42.656;23.292;2023-05-08T04:49:52;94581.88;;;14.58;68.11
9676;BME280;4876;42.656;23.292;2023-05-08T04:52:19;94582.28;;;14.93;67.24
9676;BME280;4876;42.656;23.292;2023-05-08T04:54:46;94576.19;;;14.68;68.36
9676;BME280;4876;42.656;23.292;2023-05-08T04:57:12;94579.47;;;14.77;67.74
9676;BME280;4876;42.656;23.292;2023-05-08T04:59:39;94569.78;;;15.05;68.01
9676;BME280;4876;42.656;23.292;2023-05-08T05:02:07;94571.75;;;15.33;66.49
9676;BME280;4876;42.656;23.292;2023-05-08T05:04:35;94571.50;;;15.63;65.38
9676;BME280;4876;42.656;23.292;2023-05-08T05:07:02;94572.28;;;15.63;64.97
9676;BME280;4876;42.656;23.292;2023-05-08T05:09:29;94571.41;;;15.47;66.38
9676;BME280;4876;42.656;23.292;2023-05-08T05:11:56;94561.06;;;15.82;64.30
9676;BME280;4876;42.656;23.292;2023-05-08T05:14:22;94568.56;;;15.92;63.88
9676;BME280;4876;42.656;23.292;2023-05-08T05:16:49;94560.94;;;16.19;62.92
9676;BME280;4876;42.656;23.292;2023-05-08T05:19:16;94563.81;;;16.41;61.36
9676;BME280;4876;42.656;23.292;2023-05-08T05:21:44;94560.56;;;15.64;63.66
9676;BME280;4876;42.656;23.292;2023-05-08T05:24:11;94569.00;;;16.22;62.71
9676;BME280;4876;42.656;23.292;2023-05-08T05:26:38;94568.88;;;16.47;60.77
9676;BME280;4876;42.656;23.292;2023-05-08T05:29:05;94570.84;;;16.65;59.65
9676;BME280;4876;42.656;23.292;2023-05-08T05:31:32;94565.34;;;16.42;60.98
9676;BME280;4876;42.656;23.292;2023-05-08T05:33:58;94568.41;;;16.73;59.65
9676;BME280;4876;42.656;23.292;2023-05-08T05:36:25;94567.88;;;16.83;60.10
9676;BME280;4876;42.656;23.292;2023-05-08T05:38:53;94574.13;;;17.06;58.88
9676;BME280;4876;42.656;23.292;2023-05-08T05:41:20;94576.88;;;17.10;59.01
9676;BME280;4876;42.656;23.292;2023-05-08T05:43:47;94571.88;;;17.59;57.55
9676;BME280;4876;42.656;23.292;2023-05-08T05:46:14;94578.66;;;17.57;57.63
9676;BME280;4876;42.656;23.292;2023-05-08T05:48:41;94570.72;;;17.41;57.57
9676;BME280;4876;42.656;23.292;2023-05-08T05:51:07;94570.13;;;17.83;57.13
9676;BME280;4876;42.656;23.292;2023-05-08T05:53:34;94571.38;;;17.89;57.22
9676;BME280;4876;42.656;23.292;2023-05-08T05:56:02;94563.81;;;17.91;56.69
9676;BME280;4876;42.656;23.292;2023-05-08T05:58:29;94566.84;;;18.51;56.45
9676;BME280;4876;42.656;23.292;2023-05-08T06:00:57;94563.50;;;18.35;56.19
9676;BME280;4876;42.656;23.292;2023-05-08T06:03:25;94561.31;;;18.40;58.60
9676;BME280;4876;42.656;23.292;2023-05-08T06:05:52;94550.41;;;18.68;56.10
9676;BME280;4876;42.656;23.292;2023-05-08T06:08:18;94560.91;;;18.61;54.62
9676;BME280;4876;42.656;23.292;2023-05-08T06:10:45;94557.72;;;18.10;56.00
9676;BME280;4876;42.656;23.292;2023-05-08T06:13:13;94553.72;;;18.00;57.23
9676;BME280;4876;42.656;23.292;2023-05-08T06:15:40;94557.31;;;18.08;56.16
9676;BME280;4876;42.656;23.292;2023-05-08T06:18:07;94558.94;;;18.35;55.09
9676;BME280;4876;42.656;23.292;2023-05-08T06:20:36;94545.53;;;18.51;54.33
9676;BME280;4876;42.656;23.292;2023-05-08T06:23:02;94544.44;;;18.75;54.16
9676;BME280;4876;42.656;23.292;2023-05-08T06:25:29;94545.00;;;18.88;54.14
9676;BME280;4876;42.656;23.292;2023-05-08T06:27:56;94548.00;;;18.63;54.96
9676;BME280;4876;42.656;23.292;2023-05-08T06:30:24;94550.06;;;18.27;55.46
9676;BME280;4876;42.656;23.292;2023-05-08T06:32:51;94554.41;;;18.36;55.43
9676;BME280;4876;42.656;23.292;2023-05-08T06:35:18;94560.31;;;17.87;56.27
9676;BME280;4876;42.656;23.292;2023-05-08T06:37:45;94561.28;;;17.98;57.53
9676;BME280;4876;42.656;23.292;2023-05-08T06:40:12;94557.53;;;17.64;58.14
9676;BME280;4876;42.656;23.292;2023-05-08T06:42:39;94554.00;;;17.95;57.73
9676;BME280;4876;42.656;23.292;2023-05-08T06:45:07;94555.72;;;17.68;58.69
9676;BME280;4876;42.656;23.292;2023-05-08T06:47:36;94558.34;;;18.03;57.04
9676;BME280;4876;42.656;23.292;2023-05-08T06:50:03;94559.75;;;17.97;56.98
9676;BME280;4876;42.656;23.292;2023-05-08T06:52:30;94559.09;;;18.23;56.03
9676;BME280;4876;42.656;23.292;2023-05-08T06:54:57;94552.78;;;18.31;56.12
9676;BME280;4876;42.656;23.292;2023-05-08T06:57:23;94550.25;;;18.61;54.45
9676;BME280;4876;42.656;23.292;2023-05-08T06:59:51;94551.69;;;18.55;54.53
9676;BME280;4876;42.656;23.292;2023-05-08T07:02:18;94562.69;;;18.53;56.05
9676;BME280;4876;42.656;23.292;2023-05-08T07:04:46;94560.66;;;18.05;56.19
9676;BME280;4876;42.656;23.292;2023-05-08T07:07:13;94567.09;;;18.23;55.97
9676;BME280;4876;42.656;23.292;2023-05-08T07:09:40;94571.25;;;18.43;55.95
9676;BME280;4876;42.656;23.292;2023-05-08T07:12:06;94570.56;;;18.46;56.35
9676;BME280;4876;42.656;23.292;2023-05-08T07:14:34;94564.63;;;18.56;56.58
9676;BME280;4876;42.656;23.292;2023-05-08T07:17:03;94573.75;;;18.98;55.67
9676;BME280;4876;42.656;23.292;2023-05-08T07:19:32;94576.66;;;18.47;55.72
9676;BME280;4876;42.656;23.292;2023-05-08T07:22:00;94573.16;;;18.43;56.31
9676;BME280;4876;42.656;23.292;2023-05-08T07:24:27;94559.06;;;18.42;55.97
9676;BME280;4876;42.656;23.292;2023-05-08T07:26:54;94573.44;;;18.57;56.40
9676;BME280;4876;42.656;23.292;2023-05-08T07:29:21;94565.25;;;18.69;56.50
9676;BME280;4876;42.656;23.292;2023-05-08T07:31:47;94564.38;;;18.85;55.61
9676;BME280;4876;42.656;23.292;2023-05-08T07:34:16;94567.09;;;18.65;55.65
9676;BME280;4876;42.656;23.292;2023-05-08T07:36:43;94572.13;;;18.93;55.17
9676;BME280;4876;42.656;23.292;2023-05-08T07:39:11;94569.13;;;18.95;55.29
9676;BME280;4876;42.656;23.292;2023-05-08T07:41:38;94560.97;;;18.84;56.04
9676;BME280;4876;42.656;23.292;2023-05-08T07:44:05;94560.16;;;18.18;58.31
9676;BME280;4876;42.656;23.292;2023-05-08T07:46:32;94566.00;;;18.47;57.01
9676;BME280;4876;42.656;23.292;2023-05-08T07:48:59;94574.38;;;18.07;59.94
9676;BME280;4876;42.656;23.292;2023-05-08T07:51:26;94569.53;;;18.74;57.21
9676;BME280;4876;42.656;23.292;2023-05-08T07:53:53;94571.81;;;19.21;55.01
9676;BME280;4876;42.656;23.292;2023-05-08T07:56:21;94576.09;;;19.56;53.34
9676;BME280;4876;42.656;23.292;2023-05-08T07:58:48;94578.94;;;19.63;53.10
9676;BME280;4876;42.656;23.292;2023-05-08T08:01:15;94577.88;;;19.71;53.00
9676;BME280;4876;42.656;23.292;2023-05-08T08:03:43;94583.84;;;19.61;53.56
9676;BME280;4876;42.656;23.292;2023-05-08T08:06:09;94582.47;;;19.74;53.44
9676;BME280;4876;42.656;23.292;2023-05-08T08:08:36;94580.78;;;19.62;54.54
9676;BME280;4876;42.656;23.292;2023-05-08T08:11:03;94573.47;;;20.16;52.01
9676;BME280;4876;42.656;23.292;2023-05-08T08:13:31;94578.44;;;20.17;52.10
9676;BME280;4876;42.656;23.292;2023-05-08T08:16:00;94582.28;;;20.20;52.54
9676;BME280;4876;42.656;23.292;2023-05-08T08:18:28;94578.44;;;20.17;52.01
9676;BME280;4876;42.656;23.292;2023-05-08T08:20:55;94579.03;;;19.74;53.36
9676;BME280;4876;42.656;23.292;2023-05-08T08:23:22;94576.06;;;20.09;52.24
9676;BME280;4876;42.656;23.292;2023-05-08T08:25:48;94575.91;;;19.95;53.17
9676;BME280;4876;42.656;23.292;2023-05-08T08:28:17;94576.94;;;20.20;52.41
9676;BME280;4876;42.656;23.292;2023-05-08T08:30:46;94572.13;;;19.99;54.54
9676;BME280;4876;42.656;23.292;2023-05-08T08:33:12;94571.81;;;19.74;54.58
9676;BME280;4876;42.656;23.292;2023-05-08T08:35:39;94551.69;;;19.80;55.09
9676;BME280;4876;42.656;23.292;2023-05-08T08:38:06;94551.28;;;20.12;55.13
9676;BME280;4876;42.656;23.292;2023-05-08T08:40:37;94536.72;;;20.39;53.89
9676;BME280;4876;42.656;23.292;2023-05-08T08:43:04;94547.22;;;20.59;54.11
9676;BME280;4876;42.656;23.292;2023-05-08T08:45:35;94548.09;;;20.36;55.37
9676;BME280;4876;42.656;23.292;2023-05-08T08:48:09;94546.38;;;20.17;56.06
9676;BME280;4876;42.656;23.292;2023-05-08T08:50:40;94538.66;;;20.09;56.31
9676;BME280;4876;42.656;23.292;2023-05-08T08:53:10;94542.69;;;20.29;55.57
9676;BME280;4876;42.656;23.292;2023-05-08T08:55:45;94538.88;;;20.30;55.88
9676;BME280;4876;42.656;23.292;2023-05-08T08:58:18;94533.03;;;20.17;56.34
9676;BME280;4876;42.656;23.292;2023-05-08T09:00:48;94527.75;;;20.21;56.17
9676;BME280;4876;42.656;23.292;2023-05-08T09:03:16;94516.56;;;20.12;55.87
9676;BME280;4876;42.656;23.292;2023-05-08T09:05:43;94523.28;;;19.99;56.84
9676;BME280;4876;42.656;23.292;2023-05-08T09:08:11;94508.78;;;19.96;56.55
9676;BME280;4876;42.656;23.292;2023-05-08T09:10:38;94508.94;;;20.10;56.97
9676;BME280;4876;42.656;23.292;2023-05-08T09:13:05;94515.66;;;20.34;55.81
9676;BME280;4876;42.656;23.292;2023-05-08T09:15:32;94505.16;;;20.15;56.29
9676;BME280;4876;42.656;23.292;2023-05-08T09:17:59;94496.03;;;20.16;55.24
9676;BME280;4876;42.656;23.292;2023-05-08T09:20:28;94499.44;;;20.13;55.71
9676;BME280;4876;42.656;23.292;2023-05-08T09:22:56;94479.13;;;20.05;55.97
9676;BME280;4876;42.656;23.292;2023-05-08T09:25:23;94483.75;;;20.08;56.97
9676;BME280;4876;42.656;23.292;2023-05-08T09:27:49;94472.88;;;20.27;56.63
9676;BME280;4876;42.656;23.292;2023-05-08T09:30:16;94473.31;;;19.96;55.94
9676;BME280;4876;42.656;23.292;2023-05-08T09:32:43;94474.34;;;19.84;57.43
9676;BME280;4876;42.656;23.292;2023-05-08T09:35:10;94483.53;;;19.26;58.58
9676;BME280;4876;42.656;23.292;2023-05-08T09:37:39;94467.69;;;19.41;57.72
9676;BME280;4876;42.656;23.292;2023-05-08T09:40:16;94492.38;;;19.34;58.54
9676;BME280;4876;42.656;23.292;2023-05-08T09:42:43;94506.75;;;19.56;57.79
9676;BME280;4876;42.656;23.292;2023-05-08T09:45:10;94513.63;;;19.57;57.85
9676;BME280;4876;42.656;23.292;2023-05-08T09:47:37;94506.53;;;19.38;59.35
9676;BME280;4876;42.656;23.292;2023-05-08T09:50:06;94510.34;;;19.67;58.81
9676;BME280;4876;42.656;23.292;2023-05-08T09:52:34;94512.91;;;19.90;57.27
9676;BME280;4876;42.656;23.292;2023-05-08T09:55:03;94513.44;;;20.03;56.83
9676;BME280;4876;42.656;23.292;2023-05-08T09:57:31;94516.53;;;20.08;56.74
9676;BME280;4876;42.656;23.292;2023-05-08T10:00:03;94510.56;;;20.19;56.41
9676;BME280;4876;42.656;23.292;2023-05-08T10:02:32;94506.56;;;20.02;58.98
9676;BME280;4876;42.656;23.292;2023-05-08T10:04:59;94509.63;;;20.04;57.22
9676;BME280;4876;42.656;23.292;2023-05-08T10:07:27;94482.22;;;20.10;56.62
9676;BME280;4876;42.656;23.292;2023-05-08T10:09:58;94507.53;;;20.61;56.24
9676;BME280;4876;42.656;23.292;2023-05-08T10:12:27;94506.19;;;20.40;56.63
9676;BME280;4876;42.656;23.292;2023-05-08T10:14:55;94486.97;;;20.28;57.66
9676;BME280;4876;42.656;23.292;2023-05-08T10:17:26;94503.25;;;20.53;57.36
9676;BME280;4876;42.656;23.292;2023-05-08T10:19:57;94496.16;;;20.71;56.10
9676;BME280;4876;42.656;23.292;2023-05-08T10:22:26;94490.81;;;20.71;56.24
9676;BME280;4876;42.656;23.292;2023-05-08T10:24:56;94479.19;;;20.12;57.11
9676;BME280;4876;42.656;23.292;2023-05-08T10:27:36;94483.94;;;20.29;57.59
9676;BME280;4876;42.656;23.292;2023-05-08T10:30:05;94478.78;;;20.47;58.22
9676;BME280;4876;42.656;23.292;2023-05-08T10:32:38;94472.97;;;20.38;57.16
9676;BME280;4876;42.656;23.292;2023-05-08T10:35:09;94478.94;;;20.65;57.42
9676;BME280;4876;42.656;23.292;2023-05-08T10:37:38;94477.00;;;20.62;56.85
9676;BME280;4876;42.656;23.292;2023-05-08T10:40:07;94468.28;;;20.72;56.78
9676;BME280;4876;42.656;23.292;2023-05-08T10:42:36;94474.41;;;20.69;57.76
9676;BME280;4876;42.656;23.292;2023-05-08T10:45:08;94472.91;;;20.75;57.09
9676;BME280;4876;42.656;23.292;2023-05-08T10:47:46;94469.22;;;20.97;58.42
9676;BME280;4876;42.656;23.292;2023-05-08T10:50:22;94464.81;;;21.23;56.53
9676;BME280;4876;42.656;23.292;2023-05-08T10:53:00;94464.13;;;21.33;55.85
9676;BME280;4876;42.656;23.292;2023-05-08T10:55:32;94468.06;;;21.61;54.45
9676;BME280;4876;42.656;23.292;2023-05-08T10:58:03;94462.69;;;21.54;54.33
9676;BME280;4876;42.656;23.292;2023-05-08T11:00:33;94459.97;;;21.39;55.71
9676;BME280;4876;42.656;23.292;2023-05-08T11:03:23;94448.56;;;21.57;55.60
9676;BME280;4876;42.656;23.292;2023-05-08T11:05:55;94444.75;;;21.65;55.88
9676;BME280;4876;42.656;23.292;2023-05-08T11:08:25;94450.47;;;21.60;54.67
9676;BME280;4876;42.656;23.292;2023-05-08T11:11:03;94440.53;;;21.57;54.41
9676;BME280;4876;42.656;23.292;2023-05-08T11:13:34;94436.31;;;21.59;53.89
9676;BME280;4876;42.656;23.292;2023-05-08T11:16:02;94427.91;;;21.61;54.68
9676;BME280;4876;42.656;23.292;2023-05-08T11:18:30;94425.28;;;21.71;55.73
9676;BME280;4876;42.656;23.292;2023-05-08T11:20:59;94429.53;;;21.90;54.94
9676;BME280;4876;42.656;23.292;2023-05-08T11:23:29;94425.63;;;21.56;55.90
9676;BME280;4876;42.656;23.292;2023-05-08T11:26:00;94423.00;;;21.77;54.62
9676;BME280;4876;42.656;23.292;2023-05-08T11:28:27;94409.19;;;21.61;53.90
9676;BME280;4876;42.656;23.292;2023-05-08T11:31:01;94404.59;;;21.58;54.48
9676;BME280;4876;42.656;23.292;2023-05-08T11:33:29;94410.78;;;21.76;55.12
9676;BME280;4876;42.656;23.292;2023-05-08T11:35:57;94410.00;;;21.86;53.12
9676;BME280;4876;42.656;23.292;2023-05-08T11:38:32;94398.56;;;21.89;52.76
9676;BME280;4876;42.656;23.292;2023-05-08T11:41:02;94399.72;;;22.06;53.07
9676;BME280;4876;42.656;23.292;2023-05-08T11:46:38;94370.25;;;21.92;52.46
9676;BME280;4876;42.656;23.292;2023-05-08T11:49:10;94376.00;;;22.54;50.91
9676;BME280;4876;42.656;23.292;2023-05-08T11:51:37;94376.41;;;22.39;51.90
9676;BME280;4876;42.656;23.292;2023-05-08T11:54:09;94379.09;;;22.10;50.28
9676;BME280;4876;42.656;23.292;2023-05-08T11:56:37;94360.31;;;22.07;49.77
9676;BME280;4876;42.656;23.292;2023-05-08T11:59:05;94361.84;;;21.97;51.21
9676;BME280;4876;42.656;23.292;2023-05-08T12:01:33;94370.66;;;22.01;50.17
9676;BME280;4876;42.656;23.292;2023-05-08T12:04:03;94366.09;;;22.26;50.54
9676;BME280;4876;42.656;23.292;2023-05-08T12:06:30;94354.94;;;22.64;48.89
9676;BME280;4876;42.656;23.292;2023-05-08T12:08:58;94354.19;;;22.60;50.46
9676;BME280;4876;42.656;23.292;2023-05-08T12:11:25;94360.28;;;22.78;48.45
9676;BME280;4876;42.656;23.292;2023-05-08T12:13:53;94365.72;;;22.42;49.70
9676;BME280;4876;42.656;23.292;2023-05-08T12:16:21;94366.84;;;22.52;48.88
9676;BME280;4876;42.656;23.292;2023-05-08T12:18:49;94349.63;;;22.35;49.99
9676;BME280;4876;42.656;23.292;2023-05-08T12:21:17;94363.41;;;22.55;49.08
9676;BME280;4876;42.656;23.292;2023-05-08T12:23:45;94355.75;;;22.32;49.98
9676;BME280;4876;42.656;23.292;2023-05-08T12:26:12;94356.50;;;21.93;50.33
9676;BME280;4876;42.656;23.292;2023-05-08T12:28:39;94362.25;;;22.17;49.05
9676;BME280;4876;42.656;23.292;2023-05-08T12:31:06;94355.72;;;22.07;49.67
9676;BME280;4876;42.656;23.292;2023-05-08T12:33:33;94351.13;;;22.00;49.69
9676;BME280;4876;42.656;23.292;2023-05-08T12:36:00;94350.34;;;21.96;52.59
9676;BME280;4876;42.656;23.292;2023-05-08T12:38:29;94354.19;;;21.95;54.32
9676;BME280;4876;42.656;23.292;2023-05-08T12:40:55;94364.56;;;22.15;54.23
9676;BME280;4876;42.656;23.292;2023-05-08T12:43:30;94355.75;;;22.25;56.48
9676;BME280;4876;42.656;23.292;2023-05-08T12:45:57;94356.13;;;22.23;53.24
9676;BME280;4876;42.656;23.292;2023-05-08T12:48:24;94349.63;;;22.21;54.56
9676;BME280;4876;42.656;23.292;2023-05-08T12:50:51;94352.69;;;22.30;55.37
9676;BME280;4876;42.656;23.292;2023-05-08T12:53:19;94350.41;;;22.14;52.78
9676;BME280;4876;42.656;23.292;2023-05-08T12:55:51;94346.59;;;22.12;55.05
9676;BME280;4876;42.656;23.292;2023-05-08T12:58:19;94340.84;;;22.31;53.66
9676;BME280;4876;42.656;23.292;2023-05-08T13:00:50;94345.06;;;22.18;53.32
9676;BME280;4876;42.656;23.292;2023-05-08T13:03:21;94343.50;;;22.06;54.54
9676;BME280;4876;42.656;23.292;2023-05-08T13:05:49;94344.28;;;22.32;53.94
9676;BME280;4876;42.656;23.292;2023-05-08T13:08:16;94330.50;;;22.12;53.74
9676;BME280;4876;42.656;23.292;2023-05-08T13:10:46;94330.88;;;22.24;51.83
9676;BME280;4876;42.656;23.292;2023-05-08T13:13:17;94335.47;;;22.27;53.00
9676;BME280;4876;42.656;23.292;2023-05-08T13:15:44;94336.59;;;22.23;51.90
9676;BME280;4876;42.656;23.292;2023-05-08T13:18:11;94346.53;;;22.01;53.48
9676;BME280;4876;42.656;23.292;2023-05-08T13:20:38;94359.81;;;21.40;54.96
9676;BME280;4876;42.656;23.292;2023-05-08T13:23:05;94369.56;;;20.42;58.66